Time;durP1;ratioP1;P1;durP2;ratioP2;P2;SDS_P1;SDS_P2;PMS_P1;PMS_P2;Temp;Humidity;BMP_temperature;BMP_pressure;BME280_temperature;BME280_humidity;BME280_pressure;Samples;Min_cycle;Max_cycle;Signal;HPM_P1;HPM_P2
2022/08/26 00:00:12;;;;;;;15.80;14.07;;;20.70;99.90;;;;;;4937175;28;94946;-32
2022/08/26 00:02:38;;;;;;;17.10;12.50;;;20.70;99.90;;;;;;4937836;28;94683;-30
2022/08/26 00:05:04;;;;;;;12.07;10.80;;;20.60;99.90;;;;;;4936409;28;94265;-34
2022/08/26 00:07:30;;;;;;;15.32;12.32;;;20.60;99.90;;;;;;4937524;28;93208;-34
2022/08/26 00:09:55;;;;;;;16.42;13.38;;;20.60;99.90;;;;;;4937179;28;94955;-31
2022/08/26 00:12:21;;;;;;;14.15;12.63;;;20.40;99.90;;;;;;4937216;28;93527;-33
2022/08/26 00:14:46;;;;;;;14.82;13.18;;;20.40;99.90;;;;;;4937304;28;94509;-31
2022/08/26 00:17:12;;;;;;;18.42;13.70;;;20.30;99.90;;;;;;4936753;28;93742;-33
2022/08/26 00:19:38;;;;;;;12.65;11.10;;;20.30;99.90;;;;;;4937826;28;95610;-35
2022/08/26 00:22:03;;;;;;;18.02;14.38;;;20.30;99.90;;;;;;4937126;28;95726;-35
2022/08/26 00:24:29;;;;;;;16.55;14.93;;;20.40;99.90;;;;;;4937200;28;94633;-33
2022/08/26 00:26:55;;;;;;;15.00;12.90;;;20.40;99.90;;;;;;4937396;28;94160;-32
2022/08/26 00:29:20;;;;;;;15.65;13.63;;;20.40;99.90;;;;;;4972395;22;94655;-32
2022/08/26 00:31:46;;;;;;;15.55;13.85;;;20.30;99.90;;;;;;4937795;28;93620;-34
2022/08/26 00:34:13;;;;;;;15.88;13.52;;;20.30;99.90;;;;;;4936779;28;94328;-36
2022/08/26 00:36:38;;;;;;;16.85;15.10;;;20.20;99.90;;;;;;4937826;28;93669;-34
2022/08/26 00:39:06;;;;;;;18.17;15.32;;;20.10;99.90;;;;;;4937371;28;94882;-34
2022/08/26 00:41:32;;;;;;;16.02;14.27;;;20.20;99.90;;;;;;4937106;28;94856;-33
2022/08/26 00:43:58;;;;;;;16.10;14.05;;;20.10;99.90;;;;;;4937127;28;95375;-34
2022/08/26 00:46:30;;;;;;;15.43;13.75;;;20.10;99.90;;;;;;4936848;28;93055;-34
2022/08/26 00:49:12;;;;;;;17.77;14.10;;;20.10;99.90;;;;;;4937765;28;95165;-35
2022/08/26 00:51:44;;;;;;;18.17;15.20;;;20.00;99.90;;;;;;4936777;28;94556;-32
2022/08/26 00:54:11;;;;;;;18.27;16.42;;;20.00;99.90;;;;;;4937443;28;93652;-34
2022/08/26 00:56:47;;;;;;;17.30;15.50;;;20.00;99.90;;;;;;4936644;28;94877;-35
2022/08/26 00:59:15;;;;;;;17.45;15.63;;;19.90;99.90;;;;;;4936670;28;93562;-33
2022/08/26 01:01:42;;;;;;;18.50;16.65;;;19.90;99.90;;;;;;4937889;28;94651;-33
2022/08/26 01:04:10;;;;;;;20.90;18.00;;;19.80;99.90;;;;;;4936610;28;93970;-35
2022/08/26 01:06:36;;;;;;;20.88;18.98;;;19.80;99.90;;;;;;4936568;28;94178;-30
2022/08/26 01:09:01;;;;;;;19.45;17.65;;;19.80;99.90;;;;;;4932761;28;96626;-33
2022/08/26 01:11:27;;;;;;;23.00;20.63;;;19.80;99.90;;;;;;4925899;28;95659;-34
2022/08/26 01:13:57;;;;;;;23.60;20.77;;;19.80;99.90;;;;;;4937079;28;94285;-36
2022/08/26 01:16:24;;;;;;;22.45;20.05;;;19.80;99.90;;;;;;4937157;28;94377;-35
2022/08/26 01:18:53;;;;;;;24.05;19.42;;;19.80;99.90;;;;;;4940589;28;94638;-32
2022/08/26 01:21:26;;;;;;;27.13;24.42;;;19.70;99.90;;;;;;4940323;28;94597;-30
2022/08/26 01:23:52;;;;;;;29.90;26.35;;;19.70;99.90;;;;;;4940408;28;94804;-35
2022/08/26 01:26:23;;;;;;;31.00;26.55;;;19.70;99.90;;;;;;4940862;28;93870;-33
2022/08/26 01:28:52;;;;;;;30.70;25.17;;;19.60;99.90;;;;;;4940426;28;94786;-35
2022/08/26 01:31:24;;;;;;;29.75;26.73;;;19.60;99.90;;;;;;4940158;28;94612;-31
2022/08/26 01:34:04;;;;;;;32.08;28.75;;;19.60;99.90;;;;;;4939786;28;93619;-30
2022/08/26 01:36:30;;;;;;;31.50;28.42;;;19.60;99.90;;;;;;4939766;28;93375;-32
2022/08/26 01:38:56;;;;;;;31.63;27.48;;;19.60;99.90;;;;;;4940088;28;94969;-32
2022/08/26 01:41:23;;;;;;;34.83;29.65;;;19.60;99.90;;;;;;4939419;28;94802;-35
2022/08/26 01:43:52;;;;;;;36.95;33.05;;;19.60;99.90;;;;;;4939987;28;94079;-32
2022/08/26 01:46:21;;;;;;;34.67;31.08;;;19.50;99.90;;;;;;4938808;28;93753;-34
2022/08/26 01:48:48;;;;;;;35.88;30.85;;;19.50;99.90;;;;;;4940448;28;94810;-33
2022/08/26 01:51:15;;;;;;;36.58;32.58;;;19.40;99.90;;;;;;4939729;28;94701;-32
2022/08/26 01:53:42;;;;;;;50.90;35.33;;;19.40;99.90;;;;;;4939884;28;92653;-31
2022/08/26 01:56:09;;;;;;;41.22;35.40;;;19.40;99.90;;;;;;4939457;28;94361;-33
2022/08/26 01:58:45;;;;;;;36.10;32.27;;;19.30;99.90;;;;;;4938722;28;95458;-31
2022/08/26 02:01:12;;;;;;;46.75;34.38;;;19.30;99.90;;;;;;4938911;28;97125;-32
2022/08/26 02:03:50;;;;;;;42.88;33.67;;;19.20;99.90;;;;;;4939941;28;94339;-33
2022/08/26 02:06:17;;;;;;;;;;;19.20;99.90;;;;;;4939897;28;92834;-32
2022/08/26 02:08:46;;;;;;;44.70;39.50;;;19.20;99.90;;;;;;4941651;28;94847;-31
2022/08/26 02:11:12;;;;;;;38.55;33.00;;;19.20;99.90;;;;;;4939071;28;94272;-34
2022/08/26 02:13:42;;;;;;;41.45;35.97;;;19.30;99.90;;;;;;4939413;28;93393;-32
2022/08/26 02:16:09;;;;;;;40.53;34.75;;;19.30;99.90;;;;;;4940020;28;92624;-35
2022/08/26 02:18:37;;;;;;;48.65;37.55;;;19.40;99.90;;;;;;4938607;28;94202;-31
2022/08/26 02:21:04;;;;;;;40.92;34.50;;;19.40;99.90;;;;;;4939268;28;94485;-35
2022/08/26 02:23:30;;;;;;;40.97;36.63;;;19.40;99.90;;;;;;4938412;28;94265;-29
2022/08/26 02:26:10;;;;;;;56.13;37.45;;;19.50;99.90;;;;;;4939169;28;94866;-31
2022/08/26 02:28:49;;;;;;;43.25;35.25;;;19.50;99.90;;;;;;4937814;28;93587;-33
2022/08/26 02:31:15;;;;;;;43.22;33.90;;;19.60;99.90;;;;;;4938602;28;94355;-34
2022/08/26 02:33:41;;;;;;;45.28;35.10;;;19.50;99.90;;;;;;4939146;28;93363;-32
2022/08/26 02:36:07;;;;;;;41.00;33.47;;;19.60;99.90;;;;;;4939417;28;93549;-32
2022/08/26 02:38:34;;;;;;;43.08;34.22;;;19.70;99.90;;;;;;4938811;28;94856;-32
2022/08/26 02:41:01;;;;;;;38.45;32.90;;;19.70;99.90;;;;;;4939330;28;95008;-34
2022/08/26 02:43:26;;;;;;;40.40;34.20;;;19.80;99.90;;;;;;4939172;28;92202;-33
2022/08/26 02:45:52;;;;;;;41.53;33.05;;;19.80;99.90;;;;;;4937161;28;95032;-34
2022/08/26 02:48:20;;;;;;;42.05;32.05;;;19.80;99.90;;;;;;4937827;28;95088;-33
2022/08/26 02:50:47;;;;;;;42.10;32.88;;;19.80;99.90;;;;;;4939070;28;96861;-32
2022/08/26 02:53:14;;;;;;;44.10;35.33;;;19.90;99.90;;;;;;4938042;28;92996;-35
2022/08/26 02:55:40;;;;;;;43.80;35.03;;;19.90;99.90;;;;;;4937795;28;92640;-33
2022/08/26 02:58:07;;;;;;;42.28;32.55;;;19.90;99.90;;;;;;4939169;28;94793;-31
2022/08/26 03:00:35;;;;;;;42.95;34.80;;;19.90;99.90;;;;;;4938053;28;94991;-31
2022/08/26 03:03:01;;;;;;;39.67;32.40;;;19.90;99.90;;;;;;4938828;28;94325;-32
2022/08/26 03:05:26;;;;;;;33.15;29.42;;;20.00;99.90;;;;;;4939395;28;94401;-31
2022/08/26 03:07:52;;;;;;;33.30;29.83;;;20.00;99.90;;;;;;4938384;28;94628;-34
2022/08/26 03:10:18;;;;;;;43.63;32.70;;;20.00;99.90;;;;;;4938307;28;94878;-35
2022/08/26 03:12:44;;;;;;;34.47;30.30;;;20.00;99.90;;;;;;4937869;28;94078;-33
2022/08/26 03:15:13;;;;;;;40.38;30.77;;;20.00;99.90;;;;;;4938528;28;92041;-30
2022/08/26 03:17:38;;;;;;;42.28;33.78;;;20.00;99.90;;;;;;4938462;28;94604;-34
2022/08/26 03:20:08;;;;;;;41.65;32.42;;;20.00;99.90;;;;;;4937415;28;95128;-32
2022/08/26 03:22:35;;;;;;;37.42;30.23;;;20.10;99.90;;;;;;4938552;28;94698;-31
2022/08/26 03:25:04;;;;;;;39.80;31.45;;;20.10;99.90;;;;;;4938248;28;93407;-32
2022/08/26 03:27:30;;;;;;;34.45;28.25;;;20.00;99.90;;;;;;4938093;28;94743;-31
2022/08/26 03:32:39;;;;;;;38.47;30.02;;;20.10;99.90;;;;;;4938627;28;93034;-31
2022/08/26 03:35:06;;;;;;;37.95;28.85;;;20.00;99.90;;;;;;4938463;28;92860;-31
2022/08/26 03:37:31;;;;;;;42.60;32.03;;;20.10;99.90;;;;;;4937883;28;94685;-33
2022/08/26 03:39:57;;;;;;;37.53;29.98;;;20.00;99.90;;;;;;4937414;28;94434;-32
2022/08/26 03:42:22;;;;;;;33.78;29.48;;;20.00;99.90;;;;;;4938643;28;94642;-33
2022/08/26 03:44:50;;;;;;;36.50;30.10;;;20.00;99.90;;;;;;4937749;28;94564;-33
2022/08/26 03:47:16;;;;;;;42.20;32.83;;;20.00;99.90;;;;;;4937121;28;94733;-33
2022/08/26 03:49:41;;;;;;;34.88;29.10;;;20.00;99.90;;;;;;4938054;28;94525;-33
2022/08/26 03:52:07;;;;;;;41.80;31.10;;;20.00;99.90;;;;;;4938151;28;92554;-32
2022/08/26 03:54:33;;;;;;;42.15;32.20;;;20.10;99.90;;;;;;4938571;28;91790;-32
2022/08/26 03:56:58;;;;;;;41.55;31.25;;;20.10;99.90;;;;;;4937781;28;94871;-32
2022/08/26 03:59:24;;;;;;;32.45;28.45;;;20.10;99.90;;;;;;4937204;28;94264;-31
2022/08/26 04:01:50;;;;;;;46.00;32.92;;;20.00;99.90;;;;;;4937331;28;94389;-31
2022/08/26 04:04:16;;;;;;;39.10;30.17;;;20.00;99.90;;;;;;4937578;28;94441;-33
2022/08/26 04:06:42;;;;;;;43.63;30.55;;;20.00;99.90;;;;;;4938085;28;94312;-33
2022/08/26 04:09:12;;;;;;;33.60;28.63;;;20.00;99.90;;;;;;4937297;28;95953;-33
2022/08/26 04:11:38;;;;;;;35.95;29.90;;;20.00;99.90;;;;;;4937865;28;92261;-32
2022/08/26 04:14:14;;;;;;;44.13;32.10;;;20.00;99.90;;;;;;4937310;28;92685;-31
2022/08/26 04:16:41;;;;;;;35.83;30.40;;;20.00;99.90;;;;;;4938155;28;95682;-31
2022/08/26 04:19:08;;;;;;;37.00;29.98;;;20.10;99.90;;;;;;4937874;28;94245;-33
2022/08/26 04:21:34;;;;;;;44.65;30.95;;;20.00;99.90;;;;;;4937558;28;94814;-32
2022/08/26 04:24:00;;;;;;;38.65;31.42;;;20.00;99.90;;;;;;4938068;28;93594;-32
2022/08/26 04:26:25;;;;;;;41.38;29.88;;;20.00;99.90;;;;;;4936901;28;95400;-31
2022/08/26 04:28:54;;;;;;;36.78;29.67;;;20.00;99.90;;;;;;4937629;28;95472;-32
2022/08/26 04:31:20;;;;;;;40.45;30.30;;;20.00;99.90;;;;;;4937742;28;94554;-35
2022/08/26 04:33:48;;;;;;;42.58;31.70;;;20.00;99.90;;;;;;4937624;28;92822;-32
2022/08/26 04:36:14;;;;;;;37.13;32.92;;;20.00;99.90;;;;;;4936876;28;93810;-31
2022/08/26 04:38:40;;;;;;;41.00;31.50;;;20.00;99.90;;;;;;4937529;28;94462;-33
2022/08/26 04:41:12;;;;;;;40.95;32.70;;;20.00;99.90;;;;;;4937651;28;93634;-32
2022/08/26 04:43:37;;;;;;;37.10;30.20;;;20.00;99.90;;;;;;4937982;28;92815;-34
2022/08/26 04:46:05;;;;;;;41.88;29.55;;;20.10;99.90;;;;;;4936649;28;93490;-35
2022/08/26 04:48:32;;;;;;;35.33;28.58;;;20.00;99.90;;;;;;4936455;28;94689;-34
2022/08/26 04:50:59;;;;;;;38.50;30.63;;;20.00;99.90;;;;;;4936518;28;93135;-30
2022/08/26 04:53:26;;;;;;;38.22;29.15;;;20.10;99.90;;;;;;4937375;28;92967;-32
2022/08/26 04:55:51;;;;;;;37.78;28.77;;;20.10;99.90;;;;;;4936837;28;94683;-35
2022/08/26 04:58:19;;;;;;;32.53;27.55;;;20.10;99.90;;;;;;4936870;28;94397;-35
2022/08/26 05:00:47;;;;;;;39.30;27.80;;;20.10;99.90;;;;;;4938016;28;94806;-33
2022/08/26 05:03:12;;;;;;;30.52;26.63;;;20.10;99.90;;;;;;4936483;28;94607;-32
2022/08/26 05:05:42;;;;;;;42.30;28.08;;;20.20;99.90;;;;;;4937195;28;94781;-35
2022/08/26 05:08:10;;;;;;;46.63;27.73;;;20.20;99.90;;;;;;4937596;28;93585;-31
2022/08/26 05:10:41;;;;;;;29.10;24.77;;;20.20;99.90;;;;;;4937384;28;94598;-34
2022/08/26 05:13:07;;;;;;;43.42;28.05;;;20.20;99.90;;;;;;4936641;28;93392;-32
2022/08/26 05:15:34;;;;;;;30.75;26.08;;;20.20;99.90;;;;;;4936089;28;96221;-30
2022/08/26 05:18:04;;;;;;;32.53;24.42;;;20.20;99.90;;;;;;4935961;28;94037;-35
2022/08/26 05:20:31;;;;;;;30.40;25.02;;;20.20;99.90;;;;;;4935708;28;93990;-31
2022/08/26 05:22:59;;;;;;;32.22;23.33;;;20.30;99.90;;;;;;4936083;28;93643;-34
2022/08/26 05:25:25;;;;;;;;;;;20.30;99.90;;;;;;4936818;28;94551;-35
2022/08/26 05:27:51;;;;;;;30.38;23.55;;;20.30;99.90;;;;;;4938823;28;95619;-31
2022/08/26 05:30:17;;;;;;;32.38;25.67;;;20.30;99.90;;;;;;4936160;28;94325;-31
2022/08/26 05:32:42;;;;;;;37.97;24.13;;;20.30;99.90;;;;;;4937566;28;94096;-31
2022/08/26 05:35:08;;;;;;;29.58;24.15;;;20.30;99.90;;;;;;4936180;28;94630;-32
2022/08/26 05:37:37;;;;;;;27.17;22.05;;;20.40;99.90;;;;;;4936034;28;94482;-35
2022/08/26 05:40:04;;;;;;;29.00;22.63;;;20.40;99.90;;;;;;4936694;28;95548;-34
2022/08/26 05:42:29;;;;;;;32.28;23.92;;;20.40;99.90;;;;;;4936192;28;94481;-33
2022/08/26 05:44:55;;;;;;;31.73;23.10;;;20.40;99.90;;;;;;4935605;28;94917;-34
2022/08/26 05:47:21;;;;;;;25.27;21.80;;;20.50;99.90;;;;;;4936321;28;94406;-33
2022/08/26 05:49:46;;;;;;;31.70;24.42;;;20.50;99.90;;;;;;4936374;28;94520;-32
2022/08/26 05:52:12;;;;;;;29.13;22.25;;;20.50;99.90;;;;;;4937011;28;93461;-33
2022/08/26 05:54:38;;;;;;;29.13;21.10;;;20.50;99.90;;;;;;4935507;28;95864;-33
2022/08/26 05:57:04;;;;;;;30.35;21.30;;;20.60;99.90;;;;;;4935187;28;95262;-32
2022/08/26 05:59:29;;;;;;;23.08;19.63;;;20.60;99.90;;;;;;4923467;28;92236;-34
2022/08/26 06:01:55;;;;;;;22.60;19.58;;;20.70;99.90;;;;;;4916833;28;94193;-33
2022/08/26 06:04:22;;;;;;;25.50;22.48;;;20.70;99.90;;;;;;4928111;28;96110;-33
2022/08/26 06:06:48;;;;;;;28.52;19.85;;;20.70;99.90;;;;;;4939723;28;95625;-32
2022/08/26 06:09:13;;;;;;;25.20;20.33;;;20.70;99.90;;;;;;4939511;28;93940;-35
2022/08/26 06:11:39;;;;;;;32.88;20.55;;;20.80;99.90;;;;;;4939993;28;94316;-32
2022/08/26 06:14:06;;;;;;;27.48;20.30;;;20.70;99.90;;;;;;4938720;28;94842;-33
2022/08/26 06:16:37;;;;;;;32.20;21.97;;;20.80;99.90;;;;;;4931568;28;95038;-33
2022/08/26 06:19:04;;;;;;;32.80;22.10;;;20.70;99.90;;;;;;4939533;28;92224;-34
2022/08/26 06:21:33;;;;;;;26.10;21.38;;;20.70;99.90;;;;;;4939874;28;91319;-33
2022/08/26 06:26:50;;;;;;;37.85;19.70;;;20.70;99.90;;;;;;4939342;28;94959;-34
2022/08/26 06:29:16;;;;;;;26.27;20.65;;;20.70;99.90;;;;;;4938476;28;93600;-31
2022/08/26 06:31:42;;;;;;;27.25;20.25;;;20.80;99.90;;;;;;4938920;28;93459;-31
2022/08/26 06:34:08;;;;;;;36.80;19.63;;;20.80;99.90;;;;;;4939306;28;95333;-31
2022/08/26 06:36:34;;;;;;;29.75;20.55;;;20.90;99.90;;;;;;4938553;28;94824;-33
2022/08/26 06:39:08;;;;;;;23.77;21.00;;;20.80;99.90;;;;;;4938721;28;94541;-31
2022/08/26 06:41:35;;;;;;;25.77;18.75;;;20.90;99.90;;;;;;4938921;28;94805;-31
2022/08/26 06:44:02;;;;;;;23.17;19.60;;;20.80;99.90;;;;;;4938481;28;94482;-33
2022/08/26 06:46:28;;;;;;;31.92;20.52;;;20.90;99.90;;;;;;4939127;28;93440;-34
2022/08/26 06:48:56;;;;;;;26.65;19.60;;;21.00;99.90;;;;;;4939797;28;94583;-31
2022/08/26 06:51:28;;;;;;;29.38;19.88;;;21.00;99.90;;;;;;4938535;28;94684;-33
2022/08/26 06:53:55;;;;;;;24.77;18.83;;;21.00;99.90;;;;;;4937967;28;95888;-34
2022/08/26 06:56:23;;;;;;;20.93;17.10;;;21.00;99.90;;;;;;4937952;28;96698;-34
2022/08/26 06:58:50;;;;;;;20.45;17.40;;;21.00;99.90;;;;;;4939103;28;93275;-33
2022/08/26 07:01:23;;;;;;;23.13;17.90;;;21.10;99.90;;;;;;4937866;28;93353;-35
2022/08/26 07:03:51;;;;;;;24.67;19.05;;;21.10;99.90;;;;;;4932755;28;94238;-32
2022/08/26 07:06:19;;;;;;;19.75;17.58;;;21.20;99.90;;;;;;4922605;28;95295;-32
2022/08/26 07:08:47;;;;;;;25.17;17.27;;;21.30;99.90;;;;;;4938503;28;93330;-35
2022/08/26 07:11:13;;;;;;;25.33;17.97;;;21.30;99.90;;;;;;4938960;28;93467;-35
2022/08/26 07:13:38;;;;;;;32.45;17.67;;;21.30;99.90;;;;;;4937613;28;96021;-32
2022/08/26 07:16:06;;;;;;;24.75;18.70;;;21.40;99.90;;;;;;4938145;28;94630;-34
2022/08/26 07:18:33;;;;;;;24.07;17.33;;;21.40;99.90;;;;;;4938112;28;94111;-31
2022/08/26 07:21:01;;;;;;;25.05;14.25;;;21.40;99.90;;;;;;4938588;28;92401;-32
2022/08/26 07:23:27;;;;;;;;;;;21.50;99.90;;;;;;4932640;28;93200;-30
2022/08/26 07:25:52;;;;;;;21.63;15.20;;;21.40;99.90;;;;;;4935219;28;93903;-36
2022/08/26 07:28:18;;;;;;;18.45;14.05;;;21.50;99.90;;;;;;4938657;28;94079;-33
2022/08/26 07:30:44;;;;;;;20.70;15.57;;;21.50;99.90;;;;;;4937490;28;92890;-34
2022/08/26 07:33:10;;;;;;;23.92;14.30;;;21.60;99.90;;;;;;4938727;28;95079;-35
2022/08/26 07:35:35;;;;;;;15.38;13.10;;;21.50;99.90;;;;;;4937867;28;94640;-34
2022/08/26 07:38:01;;;;;;;26.33;14.05;;;21.50;99.90;;;;;;4938885;28;93578;-32
2022/08/26 07:40:27;;;;;;;26.23;15.18;;;21.60;99.90;;;;;;4938100;28;93210;-33
2022/08/26 07:42:53;;;;;;;19.50;13.90;;;21.60;99.90;;;;;;4936999;28;95667;-33
2022/08/26 07:45:19;;;;;;;20.25;14.85;;;21.70;99.90;;;;;;4938001;28;95653;-31
2022/08/26 07:47:44;;;;;;;18.02;12.95;;;21.60;99.90;;;;;;4938499;28;93675;-33
2022/08/26 07:50:10;;;;;;;17.30;13.27;;;21.70;99.90;;;;;;4938207;28;93827;-31
2022/08/26 07:52:37;;;;;;;16.40;12.95;;;21.70;99.90;;;;;;4936813;28;94538;-34
2022/08/26 07:55:04;;;;;;;17.38;12.70;;;21.80;99.90;;;;;;4937326;28;94642;-35
2022/08/26 07:57:31;;;;;;;21.45;13.43;;;22.00;99.90;;;;;;4938676;28;92249;-32
2022/08/26 07:59:57;;;;;;;13.90;10.93;;;22.20;99.90;;;;;;4937031;28;92530;-32
2022/08/26 08:02:25;;;;;;;13.90;9.80;;;22.40;99.90;;;;;;4937728;28;95240;-34
2022/08/26 08:04:51;;;;;;;25.10;11.07;;;22.50;99.90;;;;;;4938031;28;94250;-34
2022/08/26 08:07:16;;;;;;;13.60;9.25;;;22.60;99.90;;;;;;4937749;28;94478;-31
2022/08/26 08:09:42;;;;;;;13.07;9.15;;;22.50;99.90;;;;;;4937497;28;92188;-33
2022/08/26 08:12:08;;;;;;;13.18;9.68;;;22.50;99.90;;;;;;4938761;28;94507;-33
2022/08/26 08:14:35;;;;;;;16.73;10.35;;;22.40;99.90;;;;;;4937341;28;94316;-32
2022/08/26 08:17:02;;;;;;;17.50;10.73;;;22.40;99.90;;;;;;4938001;28;94684;-35
2022/08/26 08:19:27;;;;;;;17.90;9.55;;;22.50;99.90;;;;;;4937286;28;94860;-34
2022/08/26 08:21:53;;;;;;;15.00;9.73;;;22.50;99.90;;;;;;4938125;28;95048;-32
2022/08/26 08:24:18;;;;;;;16.42;10.05;;;22.50;99.90;;;;;;4937810;28;94571;-33
2022/08/26 08:26:44;;;;;;;17.35;9.23;;;22.70;99.90;;;;;;4936808;28;93309;-34
2022/08/26 08:29:11;;;;;;;14.43;10.40;;;22.90;99.90;;;;;;4937094;28;94543;-34
2022/08/26 08:31:36;;;;;;;19.42;10.50;;;23.00;99.90;;;;;;4937035;28;95858;-32
2022/08/26 08:34:02;;;;;;;13.15;8.65;;;23.10;99.90;;;;;;4937118;28;94625;-32
2022/08/26 08:36:28;;;;;;;13.15;9.70;;;23.30;99.90;;;;;;4938144;28;94653;-35
2022/08/26 08:38:54;;;;;;;11.75;8.55;;;23.30;99.90;;;;;;4937025;28;93423;-32
2022/08/26 08:41:44;;;;;;;11.40;9.15;;;23.30;99.90;;;;;;4936549;28;95345;-34
2022/08/26 08:44:19;;;;;;;16.20;8.80;;;23.40;99.90;;;;;;4937764;28;95008;-32
2022/08/26 08:46:49;;;;;;;12.75;8.73;;;23.30;99.90;;;;;;4938575;28;93072;-34
2022/08/26 08:49:15;;;;;;;9.70;8.25;;;23.40;99.90;;;;;;4937569;28;94053;-31
2022/08/26 08:51:47;;;;;;;33.33;8.52;;;23.40;99.90;;;;;;4937320;28;94681;-32
2022/08/26 08:54:13;;;;;;;15.43;8.70;;;23.40;99.90;;;;;;4937341;28;94226;-34
2022/08/26 08:57:23;;;;;;;11.27;8.15;;;23.50;99.90;;;;;;4937060;28;93106;-34
2022/08/26 09:00:08;;;;;;;22.08;9.05;;;23.50;99.90;;;;;;4937507;28;93935;-32
2022/08/26 09:02:51;;;;;;;9.75;6.90;;;23.30;99.90;;;;;;4936583;28;94905;-34
2022/08/26 09:05:28;;;;;;;13.57;7.15;;;23.30;99.90;;;;;;4937207;28;94539;-32
2022/08/26 09:08:08;;;;;;;9.63;7.60;;;23.40;99.90;;;;;;4938657;28;92226;-31
2022/08/26 09:10:42;;;;;;;18.20;8.23;;;23.50;99.90;;;;;;4937522;28;94369;-33
2022/08/26 09:13:11;;;;;;;15.88;7.57;;;23.40;99.90;;;;;;4937160;28;94634;-32
2022/08/26 09:16:08;;;;;;;12.70;8.23;;;23.50;99.90;;;;;;4936905;28;94583;-33
2022/08/26 09:18:39;;;;;;;7.93;7.13;;;23.40;99.90;;;;;;4937478;28;93952;-34
2022/08/26 09:21:11;;;;;;;9.93;7.38;;;23.40;99.90;;;;;;4937189;28;94131;-31
2022/08/26 09:23:40;;;;;;;8.65;7.63;;;23.40;99.90;;;;;;4936009;28;97534;-34
2022/08/26 09:26:20;;;;;;;9.43;7.97;;;23.40;99.90;;;;;;4936656;28;95532;-32
2022/08/26 09:29:01;;;;;;;9.13;6.65;;;23.40;99.90;;;;;;4937538;28;94466;-33
2022/08/26 09:31:32;;;;;;;7.55;6.70;;;23.30;99.90;;;;;;4936853;28;94639;-29
2022/08/26 09:34:17;;;;;;;7.18;6.43;;;23.30;99.90;;;;;;4937523;28;95445;-33
2022/08/26 09:36:55;;;;;;;10.85;7.20;;;23.40;99.90;;;;;;4937031;28;94458;-32
2022/08/26 09:39:26;;;;;;;8.95;6.47;;;23.30;99.90;;;;;;4939823;28;92169;-34
2022/08/26 09:42:12;;;;;;;10.07;6.05;;;23.30;99.90;;;;;;4940887;28;92541;-31
2022/08/26 09:44:59;;;;;;;8.10;6.30;;;23.20;99.90;;;;;;4939643;28;95055;-34
2022/08/26 09:47:37;;;;;;;10.73;5.73;;;23.10;99.90;;;;;;4938434;28;95091;-33
2022/08/26 09:50:22;;;;;;;8.88;5.28;;;23.00;99.90;;;;;;4930213;28;94428;-31
2022/08/26 09:53:14;;;;;;;6.97;4.93;;;23.10;99.90;;;;;;4937151;28;93680;-35
2022/08/26 09:55:42;;;;;;;8.73;5.22;;;23.10;99.90;;;;;;4929965;28;95147;-34
2022/08/26 09:58:12;;;;;;;9.05;4.55;;;23.10;99.90;;;;;;4937275;28;95222;-35
2022/08/26 10:00:41;;;;;;;7.15;4.20;;;23.10;99.90;;;;;;4936179;28;94409;-35
2022/08/26 10:03:11;;;;;;;6.45;4.82;;;23.10;99.90;;;;;;4938001;28;94997;-33
2022/08/26 10:05:55;;;;;;;8.85;4.60;;;23.10;99.90;;;;;;4936576;28;94436;-34
2022/08/26 10:08:39;;;;;;;7.57;4.50;;;23.00;99.90;;;;;;4936919;28;94588;-33
2022/08/26 10:11:15;;;;;;;5.45;3.22;;;23.00;99.90;;;;;;4937663;28;93091;-34
2022/08/26 10:13:54;;;;;;;13.65;5.47;;;23.00;99.90;;;;;;4934367;28;92650;-33
2022/08/26 10:16:28;;;;;;;5.30;3.05;;;22.90;99.90;;;;;;4936011;28;95609;-35
2022/08/26 10:19:09;;;;;;;7.10;4.43;;;22.90;99.90;;;;;;4936999;28;95453;-32
2022/08/26 10:21:39;;;;;;;4.68;2.90;;;22.80;99.90;;;;;;4937083;28;94015;-32
2022/08/26 10:24:07;;;;;;;10.48;4.07;;;22.80;99.90;;;;;;4936559;28;93790;-34
2022/08/26 10:26:41;;;;;;;6.60;3.20;;;22.70;99.90;;;;;;4936215;28;95564;-32
2022/08/26 10:29:13;;;;;;;9.55;3.22;;;22.70;99.90;;;;;;4936950;28;94931;-32
2022/08/26 10:31:50;;;;;;;7.88;3.67;;;22.60;99.90;;;;;;4937814;28;93867;-33
2022/08/26 10:34:17;;;;;;;5.87;2.77;;;22.50;99.90;;;;;;4937235;28;93427;-36
2022/08/26 10:37:07;;;;;;;6.25;2.85;;;22.50;99.90;;;;;;4937557;28;94649;-34
2022/08/26 10:39:43;;;;;;;6.13;3.15;;;22.40;99.90;;;;;;4937161;28;93683;-35
2022/08/26 10:42:18;;;;;;;5.32;2.85;;;22.40;99.90;;;;;;4935445;28;94192;-33
2022/08/26 10:44:46;;;;;;;7.10;3.15;;;22.40;99.90;;;;;;4937732;28;93213;-32
2022/08/26 10:47:15;;;;;;;;;;;22.40;99.90;;;;;;4937291;28;95236;-33
2022/08/26 10:49:43;;;;;;;6.75;3.83;;;22.40;99.90;;;;;;4937415;28;94935;-34
2022/08/26 10:52:19;;;;;;;12.40;4.72;;;22.40;99.90;;;;;;4936367;28;94688;-33
2022/08/26 10:54:53;;;;;;;5.28;3.03;;;22.30;99.90;;;;;;4936904;28;93283;-32
2022/08/26 10:57:50;;;;;;;9.27;3.60;;;22.30;99.90;;;;;;4937204;28;94280;-33
2022/08/26 11:03:30;;;;;;;4.28;2.70;;;22.30;99.90;;;;;;4930490;28;93793;-33
2022/08/26 11:06:17;;;;;;;6.18;3.55;;;22.40;99.90;;;;;;4936882;28;94172;-35
2022/08/26 11:08:51;;;;;;;7.30;3.08;;;22.40;99.90;;;;;;4936232;28;95679;-33
2022/08/26 11:11:41;;;;;;;8.15;3.17;;;22.40;99.90;;;;;;4929023;28;95933;-33
2022/08/26 11:14:19;;;;;;;7.25;3.30;;;22.30;99.90;;;;;;4929808;28;94546;-32
2022/08/26 11:16:50;;;;;;;;;;;22.30;99.90;;;;;;4936399;28;93423;-34
2022/08/26 11:19:37;;;;;;;5.90;3.47;;;22.30;99.90;;;;;;4937669;28;96319;-32
2022/08/26 11:22:10;;;;;;;7.38;3.75;;;22.30;99.90;;;;;;4935711;28;94408;-31
2022/08/26 11:24:45;;;;;;;4.97;3.45;;;22.30;99.90;;;;;;4936072;28;92541;-31
2022/08/26 11:27:33;;;;;;;15.23;3.75;;;22.40;99.90;;;;;;4936722;28;94067;-33
2022/08/26 11:30:04;;;;;;;8.18;3.85;;;22.40;99.90;;;;;;4914526;28;94671;-30
2022/08/26 11:32:33;;;;;;;4.15;3.78;;;22.40;99.90;;;;;;4936083;28;94456;-32
2022/08/26 11:35:10;;;;;;;7.25;4.55;;;22.50;99.90;;;;;;4936284;28;95137;-32
2022/08/26 11:37:38;;;;;;;5.72;3.70;;;22.50;99.90;;;;;;4935547;28;93983;-34
2022/08/26 11:40:25;;;;;;;10.20;3.80;;;22.50;99.90;;;;;;4931280;28;94483;-33
2022/08/26 11:43:06;;;;;;;4.90;3.22;;;22.50;99.90;;;;;;4919355;28;95299;-32
2022/08/26 11:45:35;;;;;;;11.48;3.97;;;22.60;99.90;;;;;;4925782;28;93814;-34
2022/08/26 11:48:20;;;;;;;5.45;3.25;;;22.70;99.90;;;;;;4935146;28;93365;-32
2022/08/26 11:51:08;;;;;;;5.53;3.95;;;22.80;99.90;;;;;;4935890;28;96077;-35
2022/08/26 11:53:36;;;;;;;6.82;2.90;;;22.90;99.90;;;;;;4936740;28;94777;-33
2022/08/26 11:56:26;;;;;;;3.92;3.28;;;23.00;99.90;;;;;;4936351;28;92980;-32
2022/08/26 11:58:58;;;;;;;8.85;3.83;;;23.00;99.90;;;;;;4936302;28;93306;-33
2022/08/26 12:01:30;;;;;;;3.80;2.80;;;23.00;99.90;;;;;;4915223;28;94527;-36
2022/08/26 12:03:58;;;;;;;7.80;3.30;;;23.00;99.90;;;;;;4918072;28;95726;-31
2022/08/26 12:06:46;;;;;;;8.45;4.47;;;22.90;99.90;;;;;;4919403;28;94438;-34
2022/08/26 12:09:53;;;;;;;6.95;3.13;;;22.90;99.90;;;;;;4920217;28;93726;-34
2022/08/26 12:12:38;;;;;;;4.23;2.97;;;22.70;99.90;;;;;;4917647;28;96155;-34
2022/08/26 12:15:18;;;;;;;5.22;3.78;;;22.80;99.90;;;;;;4920752;28;95781;-31
2022/08/26 12:17:46;;;;;;;7.45;2.95;;;22.80;99.90;;;;;;4924058;28;93105;-34
2022/08/26 12:23:35;;;;;;;6.60;3.55;;;22.70;99.90;;;;;;4919063;28;95006;-31
2022/08/26 12:26:06;;;;;;;11.05;3.70;;;22.60;99.90;;;;;;4935959;28;94626;-34
2022/08/26 12:28:31;;;;;;;4.88;3.40;;;22.70;99.90;;;;;;4934607;28;95497;-32
2022/08/26 12:31:03;;;;;;;7.07;3.22;;;22.60;99.90;;;;;;4973539;22;94398;-34
2022/08/26 12:33:30;;;;;;;5.90;3.25;;;22.60;99.90;;;;;;4935161;28;94717;-30
2022/08/26 12:35:57;;;;;;;9.77;3.63;;;22.60;99.90;;;;;;4935446;28;93600;-34
2022/08/26 12:38:25;;;;;;;4.47;2.72;;;22.50;99.90;;;;;;4921186;28;94433;-34
2022/08/26 12:40:51;;;;;;;7.72;3.50;;;22.50;99.90;;;;;;4935701;28;93114;-33
2022/08/26 12:43:38;;;;;;;5.15;3.22;;;22.40;99.90;;;;;;4934691;28;95019;-30
2022/08/26 12:46:05;;;;;;;4.35;3.15;;;22.30;99.90;;;;;;4935305;28;94698;-32
2022/08/26 12:48:37;;;;;;;6.30;2.55;;;22.30;99.90;;;;;;4934595;28;92175;-31
2022/08/26 12:51:06;;;;;;;4.35;3.30;;;22.30;99.90;;;;;;4935303;28;93714;-33
2022/08/26 12:53:39;;;;;;;5.88;3.97;;;22.30;99.90;;;;;;4922335;28;95714;-33
2022/08/26 12:56:38;;;;;;;6.93;3.65;;;22.30;99.90;;;;;;4924199;28;95257;-33
2022/08/26 12:59:23;;;;;;;5.65;2.95;;;22.30;99.90;;;;;;4914835;28;94255;-34